Time;durP1;ratioP1;P1;durP2;ratioP2;P2;SDS_P1;SDS_P2;PMS_P1;PMS_P2;Temp;Humidity;BMP_temperature;BMP_pressure;BME280_temperature;BME280_humidity;BME280_pressure;Samples;Min_cycle;Max_cycle;Signal;HPM_P1;HPM_P2
2021/11/08 00:00:44;;;;;;;11.27;2.63;;;;;;;6.78;100.00;100371.97;5016204;28;20065;-56
2021/11/08 00:03:14;;;;;;;14.88;2.95;;;;;;;6.64;100.00;100368.91;5014795;28;20030;-58
2021/11/08 00:05:43;;;;;;;16.88;2.88;;;;;;;6.74;100.00;100365.03;5017464;28;20041;-54
2021/11/08 00:08:09;;;;;;;11.82;2.33;;;;;;;6.72;100.00;100369.22;5014648;28;20038;-55
2021/11/08 00:10:36;;;;;;;13.13;4.20;;;;;;;6.76;100.00;100365.97;5016052;28;20030;-58
2021/11/08 00:13:07;;;;;;;14.52;2.72;;;;;;;6.76;100.00;100366.84;5015960;28;20034;-58
2021/11/08 00:16:05;;;;;;;16.67;3.08;;;;;;;6.90;100.00;100364.78;5014806;28;20046;-57
2021/11/08 00:18:45;;;;;;;13.77;3.35;;;;;;;6.81;100.00;100362.75;5017357;28;20040;-56
2021/11/08 00:21:11;;;;;;;13.00;2.58;;;;;;;6.75;100.00;100362.56;5016454;28;20061;-58
2021/11/08 00:23:38;;;;;;;14.27;2.83;;;;;;;6.72;100.00;100356.50;5014458;28;20524;-56
2021/11/08 00:26:04;;;;;;;12.38;2.72;;;;;;;6.92;100.00;100352.94;5017051;28;20153;-57
2021/11/08 00:28:30;;;;;;;12.50;2.53;;;;;;;6.88;100.00;100367.25;5014081;28;20080;-58
2021/11/08 00:30:56;;;;;;;14.52;3.42;;;;;;;6.71;100.00;100365.81;5016497;28;20038;-57
2021/11/08 00:33:23;;;;;;;13.02;2.97;;;;;;;6.71;100.00;100363.25;5014450;28;20091;-54
2021/11/08 00:35:51;;;;;;;19.02;3.03;;;;;;;6.47;100.00;100359.81;5015282;28;20029;-58
2021/11/08 00:38:18;;;;;;;14.25;2.80;;;;;;;6.34;100.00;100351.75;5015904;28;20556;-57
2021/11/08 00:40:45;;;;;;;10.07;2.75;;;;;;;6.35;100.00;100348.38;5014331;28;20045;-57
2021/11/08 00:43:12;;;;;;;12.63;2.80;;;;;;;6.59;100.00;100353.50;5017196;28;20035;-58
2021/11/08 00:45:39;;;;;;;14.82;3.08;;;;;;;6.30;100.00;100349.88;5013950;28;20038;-58
2021/11/08 00:48:05;;;;;;;8.50;2.83;;;;;;;6.25;100.00;100348.00;5015921;28;20103;-59
2021/11/08 00:50:32;;;;;;;14.35;3.40;;;;;;;6.24;100.00;100339.50;5014469;28;20061;-59
2021/11/08 00:52:57;;;;;;;10.80;2.90;;;;;;;6.38;100.00;100337.47;5014656;28;20048;-57
2021/11/08 00:55:25;;;;;;;13.15;3.72;;;;;;;6.32;100.00;100334.69;5015611;28;20037;-57
2021/11/08 00:57:53;;;;;;;13.70;3.47;;;;;;;6.33;100.00;100339.84;5013275;28;20164;-58
2021/11/08 01:00:19;;;;;;;14.57;3.78;;;;;;;6.27;100.00;100333.66;5013519;28;20048;-59
2021/11/08 01:02:45;;;;;;;15.00;3.58;;;;;;;6.34;100.00;100340.72;5016315;28;20572;-58
2021/11/08 01:05:15;;;;;;;13.32;3.00;;;;;;;6.28;100.00;100345.53;5014319;28;20034;-55
2021/11/08 01:07:40;;;;;;;14.00;2.63;;;;;;;6.28;100.00;100340.47;5014284;28;20417;-57
2021/11/08 01:10:08;;;;;;;14.85;3.50;;;;;;;6.15;100.00;100341.69;5015684;28;20045;-59
2021/11/08 01:12:34;;;;;;;16.60;4.47;;;;;;;6.13;100.00;100343.31;5013397;28;20079;-59
2021/11/08 01:14:59;;;;;;;14.18;3.20;;;;;;;5.94;100.00;100331.56;5016284;28;20045;-56
2021/11/08 01:17:26;;;;;;;14.32;5.03;;;;;;;5.91;100.00;100331.41;5013115;28;20276;-58
2021/11/08 01:19:52;;;;;;;17.92;3.45;;;;;;;5.94;100.00;100323.94;5016076;28;20088;-58
2021/11/08 01:22:20;;;;;;;16.42;3.20;;;;;;;5.78;100.00;100317.38;5014296;28;20032;-59
2021/11/08 01:24:56;;;;;;;15.57;3.80;;;;;;;5.81;100.00;100317.47;5014037;28;20159;-57
2021/11/08 01:27:40;;;;;;;;;;;;;;;5.70;100.00;100311.13;5013463;28;20034;-55
2021/11/08 01:30:28;;;;;;;16.92;3.92;;;;;;;5.83;100.00;100312.50;5013467;28;19925;-59
2021/11/08 01:32:59;;;;;;;9.43;3.10;;;;;;;5.75;100.00;100306.22;5014894;28;20069;-58
2021/11/08 01:35:35;;;;;;;16.02;3.40;;;;;;;5.53;100.00;100290.16;5012694;28;20560;-57
2021/11/08 01:38:06;;;;;;;12.75;3.45;;;;;;;5.80;100.00;100295.44;5014677;28;20091;-54
2021/11/08 01:40:33;;;;;;;19.60;3.45;;;;;;;5.49;100.00;100283.22;5015509;28;20117;-54
2021/11/08 01:42:59;;;;;;;16.10;2.92;;;;;;;5.45;100.00;100278.81;5012905;28;20037;-57
2021/11/08 01:45:25;;;;;;;15.48;3.63;;;;;;;5.32;100.00;100263.94;5016000;28;20060;-57
2021/11/08 01:47:51;;;;;;;13.27;3.25;;;;;;;5.57;100.00;100278.44;5027892;28;20073;-58
2021/11/08 01:50:17;;;;;;;13.95;3.13;;;;;;;5.34;100.00;100258.09;5015201;28;20111;-56
2021/11/08 01:52:43;;;;;;;14.30;3.20;;;;;;;5.21;100.00;100247.38;5014429;28;20115;-56
2021/11/08 01:55:09;;;;;;;14.75;3.17;;;;;;;5.18;100.00;100225.31;5013926;28;20083;-57
2021/11/08 01:57:36;;;;;;;17.77;3.83;;;;;;;5.02;100.00;100225.47;5014628;28;20041;-59
2021/11/08 02:00:06;;;;;;;19.58;3.30;;;;;;;4.86;100.00;100218.94;5012940;28;20046;-58
2021/11/08 02:02:32;;;;;;;19.25;3.33;;;;;;;4.97;100.00;100211.75;5016311;28;20033;-58
2021/11/08 02:04:57;;;;;;;17.05;3.92;;;;;;;4.99;100.00;100220.28;5016871;28;20049;-59
2021/11/08 02:07:23;;;;;;;18.92;3.25;;;;;;;5.07;100.00;100222.31;5018654;28;20045;-58
2021/11/08 02:09:49;;;;;;;13.93;3.78;;;;;;;4.85;100.00;100214.66;5017748;28;20120;-56
2021/11/08 02:12:15;;;;;;;13.27;3.20;;;;;;;4.88;100.00;100219.00;5017976;28;20406;-59
2021/11/08 02:14:41;;;;;;;13.50;4.38;;;;;;;4.77;100.00;100209.28;5018492;28;20048;-57
2021/11/08 02:17:08;;;;;;;19.27;4.63;;;;;;;5.03;100.00;100209.44;5016640;28;20045;-58
2021/11/08 02:19:34;;;;;;;21.95;4.45;;;;;;;4.86;100.00;100191.03;5019475;28;20037;-57
2021/11/08 02:22:02;;;;;;;18.20;3.50;;;;;;;4.62;100.00;100178.19;5019582;28;20522;-58
2021/11/08 02:24:28;;;;;;;15.88;3.78;;;;;;;4.74;100.00;100176.16;5016610;28;20461;-59
2021/11/08 02:26:54;;;;;;;17.75;3.28;;;;;;;4.63;100.00;100168.94;5017666;28;20116;-56
2021/11/08 02:29:20;;;;;;;17.55;3.50;;;;;;;4.62;100.00;100162.13;5017365;28;20034;-57
2021/11/08 02:31:46;;;;;;;13.50;3.10;;;;;;;4.66;100.00;100167.38;5017794;28;20049;-58
2021/11/08 02:34:12;;;;;;;15.77;3.42;;;;;;;4.47;100.00;100155.63;5015456;28;20092;-59
2021/11/08 02:36:42;;;;;;;19.15;3.55;;;;;;;4.66;100.00;100159.78;5019316;28;20034;-59
2021/11/08 02:39:13;;;;;;;14.93;3.33;;;;;;;4.50;100.00;100150.69;5019936;28;20103;-59
2021/11/08 02:41:38;;;;;;;15.18;3.53;;;;;;;4.30;100.00;100129.59;5019844;28;20030;-58
2021/11/08 02:44:05;;;;;;;17.95;3.20;;;;;;;4.49;100.00;100130.34;5015809;28;20525;-58
2021/11/08 02:46:36;;;;;;;30.90;3.92;;;;;;;4.49;100.00;100133.75;5016871;28;20038;-59
2021/11/08 02:49:05;;;;;;;19.30;3.30;;;;;;;4.13;100.00;100100.16;5019219;28;20486;-59
2021/11/08 02:51:30;;;;;;;20.15;4.75;;;;;;;4.21;100.00;100103.00;5016656;28;20037;-60
2021/11/08 02:54:09;;;;;;;17.85;3.10;;;;;;;4.20;100.00;100107.19;5018066;28;20037;-57
2021/11/08 02:56:34;;;;;;;22.95;4.82;;;;;;;4.11;100.00;100101.72;5019142;28;20037;-57
2021/11/08 02:59:00;;;;;;;14.27;5.40;;;;;;;4.07;100.00;100092.28;5019662;28;20060;-58
2021/11/08 03:01:26;;;;;;;16.73;3.50;;;;;;;4.19;100.00;100086.84;5016315;28;20033;-58
2021/11/08 03:03:56;;;;;;;13.00;4.15;;;;;;;3.90;100.00;100068.78;5016562;28;20038;-59
2021/11/08 03:06:33;;;;;;;17.42;3.92;;;;;;;3.65;100.00;100038.16;5017440;28;20103;-58
2021/11/08 03:09:14;;;;;;;20.95;4.10;;;;;;;3.88;100.00;100045.03;5018988;28;20080;-58
2021/11/08 03:11:40;;;;;;;15.27;3.65;;;;;;;3.65;100.00;100028.91;5017809;28;20050;-59
2021/11/08 03:14:08;;;;;;;11.23;3.90;;;;;;;3.72;100.00;100030.88;5016007;28;20040;-59
2021/11/08 03:19:15;;;;;;;13.32;4.15;;;;;;;3.82;100.00;100032.13;5016192;28;20076;-59
2021/11/08 03:21:41;;;;;;;15.45;3.80;;;;;;;3.65;100.00;99996.00;5019187;28;20512;-59
2021/11/08 03:24:12;;;;;;;15.68;4.00;;;;;;;3.50;100.00;99993.66;5015305;28;20042;-59
2021/11/08 03:26:45;;;;;;;13.35;3.75;;;;;;;3.49;100.00;99991.94;5018575;28;20037;-57
2021/11/08 03:29:11;;;;;;;16.60;3.75;;;;;;;3.45;100.00;99976.56;5014831;28;20456;-59
2021/11/08 03:31:39;;;;;;;16.15;3.33;;;;;;;3.25;100.00;99948.75;5017606;28;20425;-59
2021/11/08 03:34:07;;;;;;;16.60;3.85;;;;;;;3.23;100.00;99932.63;5018745;28;20434;-58
2021/11/08 03:36:33;;;;;;;11.50;3.50;;;;;;;3.11;100.00;99933.78;5018820;28;20061;-58
2021/11/08 03:38:58;;;;;;;14.95;3.80;;;;;;;2.96;100.00;99911.22;5017791;28;20064;-58
2021/11/08 03:41:24;;;;;;;16.05;3.92;;;;;;;3.20;100.00;99937.56;5015807;28;20088;-56
2021/11/08 03:43:50;;;;;;;18.25;4.03;;;;;;;3.02;100.00;99906.44;5016708;28;20843;-58
2021/11/08 03:46:16;;;;;;;17.42;4.68;;;;;;;3.07;100.00;99912.53;5017038;28;20038;-58
2021/11/08 03:48:42;;;;;;;18.73;4.70;;;;;;;3.12;100.00;99905.16;5016115;28;20308;-60
2021/11/08 03:51:09;;;;;;;15.85;3.47;;;;;;;2.50;100.00;99862.06;5017297;28;20116;-59
2021/11/08 03:53:35;;;;;;;16.90;4.13;;;;;;;2.91;100.00;99860.47;5014762;28;20037;-58
2021/11/08 03:56:02;;;;;;;15.73;3.63;;;;;;;2.98;100.00;99856.53;5018384;28;20037;-60
2021/11/08 03:58:28;;;;;;;16.05;3.42;;;;;;;1.95;100.00;99740.91;5017394;28;20038;-56
2021/11/08 04:00:54;;;;;;;20.13;4.05;;;;;;;1.93;100.00;99746.66;5016038;28;20034;-59
2021/11/08 04:03:30;;;;;;;16.92;3.67;;;;;;;2.19;100.00;99760.44;5016323;28;20037;-59
2021/11/08 04:05:56;;;;;;;11.52;4.22;;;;;;;1.91;100.00;99738.19;5014086;28;20038;-59
2021/11/08 04:08:22;;;;;;;18.75;4.20;;;;;;;1.70;100.00;99680.88;5017840;28;20029;-60
2021/11/08 04:10:52;;;;;;;15.55;3.67;;;;;;;1.70;100.00;99680.88;5014859;28;20056;-58
2021/11/08 04:13:23;;;;;;;16.30;3.92;;;;;;;2.06;100.00;99703.50;5015952;28;20072;-57
2021/11/08 04:15:49;;;;;;;11.30;3.45;;;;;;;-0.14;100.00;99389.47;5017118;28;20033;-59
2021/11/08 04:18:19;;;;;;;14.63;4.57;;;;;;;0.26;100.00;99436.59;5015082;28;20427;-56
2021/11/08 04:20:46;;;;;;;17.05;3.63;;;;;;;-0.68;100.00;99282.97;5014834;28;20518;-59
2021/11/08 04:23:14;;;;;;;12.15;3.03;;;;;;;-2.26;100.00;99050.22;5014281;28;20030;-59
2021/11/08 04:25:41;;;;;;;17.70;4.00;;;;;;;-1.11;100.00;99199.66;5014833;28;20813;-58
2021/11/08 04:28:07;;;;;;;12.98;3.97;;;;;;;-3.24;100.00;98863.34;5016506;28;20347;-59
2021/11/08 04:30:37;;;;;;;18.67;3.60;;;;;;;-7.08;100.00;98238.69;5014838;28;20038;-57
2021/11/08 04:33:14;;;;;;;11.18;4.03;;;;;;;-7.67;100.00;98105.44;5017244;28;20041;-59
2021/11/08 04:35:56;;;;;;;15.02;3.65;;;;;;;-9.11;100.00;97851.88;5016047;28;20045;-59
2021/11/08 04:41:26;;;;;;;14.75;3.53;;;;;;;-46.12;100.00;91770.69;5013941;28;20044;-57
2021/11/08 04:44:01;;;;;;;19.52;4.32;;;;;;;-145.42;99.10;77015.09;5013677;28;20091;-59
2021/11/08 04:46:48;;;;;;;13.15;3.40;;;;;;;-145.42;99.36;77005.34;5017344;28;20117;-58
2021/11/08 04:49:36;;;;;;;14.80;3.47;;;;;;;-145.42;99.75;77019.00;5013513;28;20547;-57
2021/11/08 05:24:39;;;;;;;16.67;3.67;;;;;;;-145.42;99.87;77038.50;5017420;28;20086;-58
2021/11/08 05:32:04;;;;;;;19.25;4.90;;;;;;;-145.42;99.34;77003.41;5013994;28;20048;-58
2021/11/08 05:34:29;;;;;;;16.02;3.80;;;;;;;-145.42;99.70;77042.41;5012785;28;20440;-59
2021/11/08 05:36:55;;;;;;;16.10;4.25;;;;;;;-145.42;98.99;77007.28;5017072;28;20734;-60
2021/11/08 05:39:21;;;;;;;17.20;4.60;;;;;;;-145.42;99.40;77036.56;5015537;28;20033;-58
2021/11/08 05:41:46;;;;;;;22.13;4.50;;;;;;;-145.42;98.91;77019.00;5018390;28;20076;-58
2021/11/08 05:44:12;;;;;;;20.05;5.18;;;;;;;-145.42;98.91;77036.56;5020118;28;20125;-59
2021/11/08 05:46:38;;;;;;;19.73;4.80;;;;;;;-145.42;99.48;77032.66;5017017;28;20041;-58
2021/11/08 05:49:04;;;;;;;15.57;4.78;;;;;;;-145.42;98.95;77054.13;5015327;28;20588;-59
2021/11/08 05:51:30;;;;;;;14.80;4.60;;;;;;;-145.42;99.56;77042.41;5016287;28;20045;-58
2021/11/08 05:53:56;;;;;;;19.13;4.13;;;;;;;-145.42;98.81;77026.81;5013972;28;20034;-55
2021/11/08 06:50:39;;;;;;;15.75;3.30;;;;;;;-145.42;97.64;77097.03;5017356;28;20053;-58
2021/11/08 06:53:07;;;;;;;16.25;3.33;;;;;;;-145.42;97.32;77058.00;5018730;28;20025;-54
2021/11/08 06:55:34;;;;;;;10.38;2.80;;;;;;;-145.42;97.81;77114.59;5020259;28;20038;-55
2021/11/08 06:58:03;;;;;;;12.93;2.92;;;;;;;-145.42;98.53;77114.59;5019129;28;20034;-57
2021/11/08 07:00:30;;;;;;;15.07;2.83;;;;;;;-145.42;98.14;77089.22;5017819;28;20387;-56
2021/11/08 07:02:56;;;;;;;17.92;3.38;;;;;;;-145.42;97.35;77087.28;5016956;28;20033;-56
2021/11/08 07:05:21;;;;;;;13.05;3.70;;;;;;;-145.42;97.52;77085.31;5018424;28;20041;-55
2021/11/08 07:07:47;;;;;;;13.25;2.72;;;;;;;-145.42;96.94;77056.06;5016241;28;20037;-56
2021/11/08 07:10:13;;;;;;;19.55;3.72;;;;;;;-145.42;96.45;77071.69;5016410;28;20042;-55
2021/11/08 07:12:38;;;;;;;12.20;2.53;;;;;;;-145.42;96.94;77071.69;5019379;28;20052;-58
2021/11/08 07:15:06;;;;;;;10.65;4.13;;;;;;;-145.42;96.94;77085.31;5019087;28;20036;-57
2021/11/08 07:17:35;;;;;;;15.15;2.97;;;;;;;-145.42;96.36;77077.53;5017399;28;20383;-57
2021/11/08 07:20:01;;;;;;;9.50;2.90;;;;;;;-145.42;95.93;77095.09;5016941;28;20053;-59
2021/11/08 07:22:27;;;;;;;15.57;3.80;;;;;;;-145.42;96.25;77061.91;5017799;28;20036;-56
2021/11/08 07:24:53;;;;;;;16.88;3.63;;;;;;;-145.42;95.96;77046.31;5015622;28;20061;-56
2021/11/08 07:27:19;;;;;;;12.65;2.65;;;;;;;-145.42;95.67;77077.53;5018871;28;20045;-58
2021/11/08 07:29:45;;;;;;;11.77;3.05;;;;;;;-145.42;95.05;77028.75;5016148;28;20145;-57
2021/11/08 07:32:11;;;;;;;13.23;3.55;;;;;;;-145.42;95.14;77042.41;5017883;28;20327;-58
2021/11/08 07:34:36;;;;;;;10.30;2.90;;;;;;;-145.42;95.42;77083.38;5015722;28;20072;-57
2021/11/08 07:37:03;;;;;;;9.43;2.47;;;;;;;-145.42;94.42;77048.25;5016950;28;20048;-56
2021/11/08 07:39:29;;;;;;;16.73;3.50;;;;;;;-145.42;95.84;77085.31;5019480;28;20053;-52
2021/11/08 07:41:54;;;;;;;15.48;3.03;;;;;;;-145.42;94.37;77042.41;5017479;28;20560;-52
2021/11/08 07:44:20;;;;;;;10.43;2.90;;;;;;;-145.42;92.76;77011.19;5018092;28;20041;-55
2021/11/08 07:46:45;;;;;;;13.30;2.80;;;;;;;-145.42;94.97;77065.81;5015262;28;20096;-57
2021/11/08 07:49:11;;;;;;;12.98;2.40;;;;;;;-145.42;94.28;77020.94;5013525;28;20692;-56
2021/11/08 07:51:37;;;;;;;13.20;2.63;;;;;;;-145.42;93.33;77026.81;5017929;28;20410;-56
2021/11/08 07:54:03;;;;;;;9.95;2.50;;;;;;;-145.42;93.56;77019.00;5015570;28;20034;-58
2021/11/08 07:56:29;;;;;;;9.55;2.22;;;;;;;-145.42;92.99;77024.84;5016511;28;20056;-56
2021/11/08 07:58:54;;;;;;;14.88;2.95;;;;;;;-145.42;93.54;77056.06;5016728;28;20392;-58
2021/11/08 08:01:23;;;;;;;11.73;2.95;;;;;;;-145.42;93.78;77036.56;5016090;28;20033;-56
2021/11/08 08:03:49;;;;;;;15.32;3.90;;;;;;;-145.42;93.08;77011.19;5017923;28;20049;-57
2021/11/08 08:06:16;;;;;;;17.13;3.53;;;;;;;-145.42;92.83;77024.84;5014696;28;20030;-58
2021/11/08 08:08:45;;;;;;;15.95;3.30;;;;;;;-145.42;92.24;76995.59;5014388;28;20375;-57
2021/11/08 08:11:11;;;;;;;7.18;2.08;;;;;;;-145.42;92.79;77046.31;5016305;28;20033;-58
2021/11/08 08:13:38;;;;;;;13.60;3.08;;;;;;;-145.42;92.43;77022.91;5015775;28;20036;-57
2021/11/08 08:16:07;;;;;;;10.77;2.28;;;;;;;-145.42;92.33;77026.81;5014502;28;20045;-56
2021/11/08 08:18:37;;;;;;;9.80;2.25;;;;;;;-145.42;93.03;77048.25;5014332;28;20038;-56
2021/11/08 08:21:05;;;;;;;14.70;3.60;;;;;;;-145.42;92.20;77015.09;5017590;28;20107;-57
2021/11/08 08:23:31;;;;;;;9.40;2.60;;;;;;;-145.42;91.96;77028.75;5013298;28;20674;-57
2021/11/08 08:25:57;;;;;;;11.70;2.88;;;;;;;-145.42;92.02;77017.03;5015705;28;20506;-57
2021/11/08 08:28:23;;;;;;;11.35;2.75;;;;;;;-145.42;92.13;77038.50;5015972;28;20056;-58
2021/11/08 08:30:49;;;;;;;12.65;2.72;;;;;;;-145.42;93.10;77054.13;5017318;28;20069;-57
2021/11/08 08:33:16;;;;;;;15.43;3.25;;;;;;;-145.42;92.73;77038.50;5014611;28;20034;-55
2021/11/08 08:35:42;;;;;;;11.27;2.55;;;;;;;-145.42;93.44;77028.75;5016584;28;20033;-55
2021/11/08 08:38:09;;;;;;;13.63;2.50;;;;;;;-145.42;92.71;77050.22;5013760;28;20445;-57
2021/11/08 08:40:35;;;;;;;10.98;2.25;;;;;;;-145.42;93.35;77028.75;5016374;28;20091;-55
2021/11/08 08:43:03;;;;;;;11.15;2.80;;;;;;;-145.42;92.60;77003.41;5014772;28;20495;-55
2021/11/08 08:45:29;;;;;;;11.30;2.42;;;;;;;-145.42;91.34;76962.44;5015224;28;20057;-57
2021/11/08 08:47:54;;;;;;;9.95;2.30;;;;;;;-145.42;88.92;76907.81;5015695;28;20033;-55
2021/11/08 08:50:20;;;;;;;10.23;2.30;;;;;;;-145.42;87.50;76925.38;5013989;28;20044;-53
2021/11/08 08:52:47;;;;;;;10.88;2.67;;;;;;;-145.42;86.79;76909.75;5017407;28;20080;-54
2021/11/08 08:55:12;;;;;;;17.50;2.60;;;;;;;-145.42;87.06;76882.44;5017060;28;20702;-58
2021/11/08 08:57:38;;;;;;;13.98;2.30;;;;;;;-145.42;86.97;76882.44;5013994;28;20046;-58
2021/11/08 09:00:08;;;;;;;9.25;2.17;;;;;;;-145.42;88.41;76931.22;5016269;28;20080;-56
2021/11/08 09:02:34;;;;;;;9.10;2.60;;;;;;;-145.42;88.02;76898.06;5015180;28;20563;-58
2021/11/08 09:04:59;;;;;;;18.27;3.05;;;;;;;-145.42;86.82;76921.47;5014444;28;20068;-54
2021/11/08 09:07:25;;;;;;;8.88;2.05;;;;;;;-145.42;88.08;76917.56;5016085;28;20490;-56
2021/11/08 09:09:51;;;;;;;10.65;3.00;;;;;;;-145.42;86.72;76870.75;5013397;28;20061;-57
2021/11/08 09:12:16;;;;;;;14.15;2.47;;;;;;;-145.42;87.45;76933.16;5016549;28;20029;-57
2021/11/08 09:14:42;;;;;;;12.55;2.08;;;;;;;7.39;100.00;100560.91;5013705;28;20038;-55
2021/11/08 09:17:07;;;;;;;12.35;2.67;;;;;;;7.79;100.00;100694.84;5015659;28;20046;-56
2021/11/08 09:19:34;;;;;;;9.75;2.38;;;;;;;7.78;100.00;100670.19;5012807;28;20076;-53
2021/11/08 09:22:00;;;;;;;9.15;1.95;;;;;;;6.99;100.00;100580.59;5014888;28;20076;-57
2021/11/08 09:24:26;;;;;;;8.88;1.75;;;;;;;7.96;100.00;100710.78;5014297;28;20033;-58
2021/11/08 09:26:51;;;;;;;8.85;1.70;;;;;;;8.45;100.00;100773.78;5015480;28;20091;-56
2021/11/08 09:29:18;;;;;;;6.35;2.33;;;;;;;8.13;100.00;100753.06;5013896;28;20792;-57
2021/11/08 09:31:45;;;;;;;10.25;2.30;;;;;;;8.33;100.00;100797.16;5016462;28;20046;-55
2021/11/08 09:34:14;;;;;;;9.07;2.15;;;;;;;8.50;100.00;100813.09;5012843;28;20034;-58
2021/11/08 09:36:40;;;;;;;11.65;2.47;;;;;;;8.44;100.00;100834.97;5015250;28;20047;-55
2021/11/08 09:39:22;;;;;;;7.90;1.85;;;;;;;8.29;100.00;100835.25;5014778;28;20065;-58
2021/11/08 09:41:49;;;;;;;6.97;2.25;;;;;;;8.86;100.00;100858.63;5016736;28;20037;-58
2021/11/08 09:44:15;;;;;;;8.07;2.00;;;;;;;8.90;100.00;100866.44;5013994;28;20049;-57
2021/11/08 09:46:42;;;;;;;8.23;2.03;;;;;;;8.61;100.00;100879.84;5015825;28;20505;-58
2021/11/08 09:49:10;;;;;;;12.38;2.15;;;;;;;8.83;100.00;100873.84;5016139;28;20516;-59
2021/11/08 09:51:41;;;;;;;5.70;1.70;;;;;;;8.81;100.00;100878.00;5022296;28;20040;-58
2021/11/08 09:54:07;;;;;;;6.72;1.58;;;;;;;8.91;100.00;100886.03;5016710;28;20037;-57
2021/11/08 09:56:33;;;;;;;10.85;2.40;;;;;;;8.72;100.00;100898.09;5016182;28;20037;-58
2021/11/08 09:59:01;;;;;;;9.35;2.05;;;;;;;8.79;100.00;100898.41;5017008;28;20116;-59
2021/11/08 10:01:28;;;;;;;11.45;2.70;;;;;;;8.58;100.00;100890.81;5015237;28;20033;-56
2021/11/08 10:03:55;;;;;;;13.18;2.30;;;;;;;9.04;100.00;100889.91;5014146;28;20048;-58
2021/11/08 10:06:21;;;;;;;7.82;1.90;;;;;;;9.03;100.00;100893.28;5015897;28;20060;-56
2021/11/08 10:08:51;;;;;;;9.00;1.88;;;;;;;8.62;100.00;100895.22;5016169;28;20048;-56
2021/11/08 10:11:18;;;;;;;9.15;2.50;;;;;;;8.99;100.00;100904.19;5014441;28;20069;-58
2021/11/08 10:13:46;;;;;;;9.35;2.03;;;;;;;9.14;100.00;100917.50;5012277;28;20044;-58
2021/11/08 10:16:22;;;;;;;12.50;2.55;;;;;;;9.10;100.00;100920.75;5012409;28;20569;-55
2021/11/08 10:18:52;;;;;;;8.15;2.00;;;;;;;8.93;100.00;100915.06;5014777;28;20120;-57
2021/11/08 10:21:20;;;;;;;8.13;1.98;;;;;;;9.12;100.00;100914.03;5014093;28;20034;-56
2021/11/08 10:23:51;;;;;;;9.65;2.70;;;;;;;9.03;100.00;100930.72;5013340;28;20041;-56
2021/11/08 10:26:23;;;;;;;12.38;2.40;;;;;;;9.17;100.00;100932.94;5018826;28;20033;-55
2021/11/08 10:28:57;;;;;;;10.15;2.60;;;;;;;9.54;100.00;100935.91;5016369;28;20049;-54
2021/11/08 10:31:29;;;;;;;7.07;2.10;;;;;;;9.07;100.00;100941.13;5017473;28;20568;-58
2021/11/08 10:33:57;;;;;;;12.10;2.30;;;;;;;9.47;100.00;100944.16;5018920;28;20033;-58
2021/11/08 10:36:24;;;;;;;9.98;2.17;;;;;;;9.15;100.00;100949.94;5016057;28;20034;-53
2021/11/08 10:38:53;;;;;;;15.27;2.22;;;;;;;9.37;100.00;100943.00;5018433;28;20033;-57
2021/11/08 10:41:30;;;;;;;9.13;2.10;;;;;;;9.47;100.00;100949.28;5017129;28;20080;-56
2021/11/08 10:44:11;;;;;;;7.35;1.98;;;;;;;9.29;100.00;100949.50;5015960;28;20080;-54
2021/11/08 10:46:40;;;;;;;8.13;2.30;;;;;;;9.89;100.00;100955.84;5017392;28;20130;-58
2021/11/08 10:49:12;;;;;;;10.75;2.20;;;;;;;10.28;100.00;100955.41;5019771;28;20494;-58
2021/11/08 10:51:40;;;;;;;7.68;1.50;;;;;;;10.77;100.00;100964.56;5016506;28;20049;-58
2021/11/08 10:54:10;;;;;;;7.95;2.25;;;;;;;11.93;100.00;100964.31;5019713;28;20022;-57
2021/11/08 10:56:39;;;;;;;9.30;2.20;;;;;;;11.03;100.00;100964.44;5016943;28;20382;-58
2021/11/08 10:59:11;;;;;;;8.07;2.50;;;;;;;11.56;100.00;100972.72;5018922;28;20037;-57
2021/11/08 11:01:48;;;;;;;10.68;2.13;;;;;;;11.59;100.00;100983.06;5018877;28;20797;-58
2021/11/08 11:04:16;;;;;;;8.48;2.03;;;;;;;11.43;100.00;100977.53;5016764;28;20064;-58
2021/11/08 11:06:47;;;;;;;9.68;1.92;;;;;;;11.03;100.00;100969.56;5014216;28;20726;-57
2021/11/08 11:09:23;;;;;;;7.10;1.92;;;;;;;11.16;100.00;100977.63;5017614;28;20033;-56
2021/11/08 11:12:07;;;;;;;9.60;1.88;;;;;;;10.86;100.00;100976.75;5017049;28;20577;-57
2021/11/08 11:14:45;;;;;;;9.50;1.90;;;;;;;10.87;100.00;100960.59;5019260;28;20486;-57
2021/11/08 11:17:20;;;;;;;11.00;2.20;;;;;;;10.80;100.00;100968.91;5015193;28;20026;-59
2021/11/08 11:19:46;;;;;;;10.10;2.45;;;;;;;10.53;100.00;100966.38;5017919;28;20037;-57
2021/11/08 11:22:17;;;;;;;13.13;3.10;;;;;;;10.62;100.00;100967.53;5017640;28;20133;-55
2021/11/08 11:24:55;;;;;;;11.38;3.00;;;;;;;10.40;100.00;100978.84;5015715;28;20046;-58
2021/11/08 11:27:29;;;;;;;12.20;3.35;;;;;;;10.44;100.00;100970.44;5018975;28;20140;-58
2021/11/08 11:30:19;;;;;;;14.65;3.92;;;;;;;10.40;100.00;100975.41;5018718;28;20620;-56
2021/11/08 11:32:55;;;;;;;8.05;3.28;;;;;;;10.34;100.00;100983.75;5017909;28;20498;-55
2021/11/08 11:35:21;;;;;;;9.68;2.35;;;;;;;10.18;100.00;100989.19;5017959;28;20045;-56
2021/11/08 11:38:01;;;;;;;13.40;2.97;;;;;;;10.45;100.00;100969.59;5016721;28;20068;-58
2021/11/08 11:40:29;;;;;;;9.32;2.22;;;;;;;10.52;100.00;100968.09;5014529;28;20058;-57
2021/11/08 11:43:01;;;;;;;7.43;2.33;;;;;;;10.10;100.00;100971.00;5017727;28;20030;-58
2021/11/08 11:45:29;;;;;;;10.43;2.10;;;;;;;10.69;100.00;100973.72;5016419;28;20034;-58
2021/11/08 11:47:56;;;;;;;7.78;2.17;;;;;;;10.68;100.00;100974.53;5015152;28;20037;-55
2021/11/08 11:50:23;;;;;;;7.07;1.92;;;;;;;10.45;100.00;100971.28;5017836;28;20115;-55
2021/11/08 11:52:49;;;;;;;11.40;2.42;;;;;;;11.01;100.00;100979.78;5014798;28;20034;-56
2021/11/08 11:55:16;;;;;;;17.52;2.53;;;;;;;10.91;100.00;100975.22;5017458;28;20124;-59
2021/11/08 11:57:42;;;;;;;10.98;1.83;;;;;;;10.43;100.00;100965.25;5015904;28;20537;-54
2021/11/08 12:00:09;;;;;;;10.95;2.08;;;;;;;10.56;100.00;100974.16;5016208;28;20034;-56
2021/11/08 12:02:35;;;;;;;11.10;2.05;;;;;;;10.54;100.00;100976.69;5016851;28;20041;-55
2021/11/08 12:05:01;;;;;;;11.15;2.20;;;;;;;10.54;100.00;100973.25;5015170;28;20117;-56
2021/11/08 12:07:27;;;;;;;10.02;1.98;;;;;;;10.47;100.00;100971.34;5017568;28;20347;-55
2021/11/08 12:09:54;;;;;;;8.80;1.85;;;;;;;10.55;100.00;100973.31;5014449;28;20061;-54
2021/11/08 12:12:24;;;;;;;7.68;1.73;;;;;;;10.67;100.00;100977.91;5017978;28;20029;-55
2021/11/08 12:15:05;;;;;;;9.20;2.15;;;;;;;10.71;100.00;100985.72;5015624;28;20833;-58
2021/11/08 12:17:46;;;;;;;10.88;2.33;;;;;;;10.58;100.00;100986.19;5016236;28;20033;-58
2021/11/08 12:20:24;;;;;;;10.27;2.13;;;;;;;10.89;100.00;100984.53;5016788;28;20032;-57
2021/11/08 12:22:51;;;;;;;9.05;2.30;;;;;;;10.70;100.00;100989.13;5012020;28;20088;-58
2021/11/08 12:25:20;;;;;;;10.50;1.83;;;;;;;10.60;100.00;100984.56;5016169;28;20120;-56
2021/11/08 12:27:55;;;;;;;10.25;2.13;;;;;;;10.52;100.00;100980.88;5016943;28;20042;-57
2021/11/08 12:30:33;;;;;;;9.32;2.10;;;;;;;10.80;100.00;100981.72;5017844;28;20041;-55
2021/11/08 12:33:02;;;;;;;10.98;1.95;;;;;;;10.85;100.00;100975.03;5016453;28;20038;-57
2021/11/08 12:35:40;;;;;;;10.10;1.90;;;;;;;10.11;100.00;100975.31;5014588;28;20050;-58
2021/11/08 12:38:15;;;;;;;12.10;2.35;;;;;;;10.25;100.00;100973.22;5015892;28;20387;-58
2021/11/08 12:40:41;;;;;;;8.20;2.08;;;;;;;10.41;100.00;100980.56;5015015;28;20048;-57
2021/11/08 12:43:07;;;;;;;13.88;1.92;;;;;;;10.18;100.00;100969.56;5020817;28;20409;-57
2021/11/08 12:45:42;;;;;;;10.43;1.85;;;;;;;10.42;100.00;100966.94;5014131;28;20033;-58
2021/11/08 12:48:11;;;;;;;9.93;2.10;;;;;;;10.52;100.00;100965.53;5015219;28;20084;-58
2021/11/08 12:50:38;;;;;;;8.30;2.10;;;;;;;10.75;100.00;100967.91;5016098;28;20049;-57
2021/11/08 12:53:06;;;;;;;7.47;1.65;;;;;;;10.68;100.00;100965.16;5020516;28;20441;-57
2021/11/08 12:55:41;;;;;;;11.00;1.85;;;;;;;10.59;100.00;100957.22;5022357;28;20060;-58
2021/11/08 12:58:08;;;;;;;8.13;1.88;;;;;;;10.23;100.00;100961.19;5038074;28;20033;-58
2021/11/08 13:00:40;;;;;;;7.03;2.00;;;;;;;10.73;100.00;100977.25;5025235;28;20406;-58